Time;durP1;ratioP1;P1;durP2;ratioP2;P2;SDS_P1;SDS_P2;PMS_P1;PMS_P2;Temp;Humidity;BMP_temperature;BMP_pressure;BME280_temperature;BME280_humidity;BME280_pressure;Samples;Min_cycle;Max_cycle;Signal;HPM_P1;HPM_P2
2022/07/05 00:02:54;;;;;;;5.73;2.43;;;;;;;14.66;83.84;101328.81;6004171;28;20039;-66
2022/07/05 00:05:49;;;;;;;4.72;2.20;;;;;;;14.93;81.83;101324.28;5999800;28;20042;-64
2022/07/05 00:08:44;;;;;;;4.72;1.95;;;;;;;14.71;81.96;101320.34;6003802;28;20478;-66
2022/07/05 00:11:40;;;;;;;4.87;1.93;;;;;;;14.45;82.73;101319.50;6003176;28;20046;-65
2022/07/05 00:14:36;;;;;;;3.80;2.10;;;;;;;14.15;84.06;101318.09;5995952;28;20030;-65
2022/07/05 00:17:31;;;;;;;6.55;2.25;;;;;;;13.95;84.61;101314.72;6001315;28;20290;-66
2022/07/05 00:20:26;;;;;;;4.57;1.90;;;;;;;13.94;85.41;101321.03;6001760;28;20526;-67
2022/07/05 00:23:22;;;;;;;5.77;1.70;;;;;;;13.90;85.81;101322.34;6003823;28;20293;-67
2022/07/05 00:26:17;;;;;;;5.17;1.90;;;;;;;14.01;86.05;101315.94;6001913;28;20080;-65
2022/07/05 00:29:12;;;;;;;5.13;1.90;;;;;;;14.00;85.85;101323.09;6004209;28;20687;-66
2022/07/05 00:32:08;;;;;;;4.07;2.22;;;;;;;14.81;86.35;101321.09;5994756;28;20046;-64
2022/07/05 00:35:04;;;;;;;7.00;2.63;;;;;;;15.13;82.80;101326.59;6003944;28;20031;-64
2022/07/05 00:38:00;;;;;;;4.95;2.03;;;;;;;14.86;82.60;101324.13;6002946;28;20487;-66
2022/07/05 00:40:55;;;;;;;6.00;2.40;;;;;;;14.86;82.29;101318.78;5999271;28;20038;-66
2022/07/05 00:43:56;;;;;;;3.60;2.00;;;;;;;14.71;82.33;101321.19;5996245;28;20038;-64
2022/07/05 00:46:51;;;;;;;3.65;1.80;;;;;;;14.47;82.22;101320.19;6003123;28;20051;-67
2022/07/05 00:49:47;;;;;;;3.40;1.80;;;;;;;14.19;83.75;101330.09;6003258;28;20042;-64
2022/07/05 00:52:42;;;;;;;6.37;2.03;;;;;;;13.80;85.06;101334.09;5999392;28;20041;-65
2022/07/05 00:55:37;;;;;;;4.63;2.25;;;;;;;13.50;86.12;101328.13;6003158;28;20370;-65
2022/07/05 00:58:33;;;;;;;5.07;1.80;;;;;;;13.47;87.38;101332.91;6002256;28;20046;-65
2022/07/05 01:01:28;;;;;;;6.38;2.17;;;;;;;13.81;86.97;101339.25;6001772;28;20114;-64
2022/07/05 01:04:24;;;;;;;6.40;2.37;;;;;;;13.37;87.64;101332.94;6003491;28;20043;-65
2022/07/05 01:07:21;;;;;;;5.15;2.30;;;;;;;13.32;88.85;101339.69;5997490;28;20289;-66
2022/07/05 01:10:16;;;;;;;5.18;2.20;;;;;;;13.07;89.16;101347.38;5998321;28;20045;-66
2022/07/05 01:13:12;;;;;;;5.70;2.35;;;;;;;13.07;90.50;101349.25;6012046;28;20506;-66
2022/07/05 01:16:09;;;;;;;6.45;2.58;;;;;;;13.42;90.53;101341.34;6003098;28;20039;-66
2022/07/05 01:19:08;;;;;;;6.13;2.53;;;;;;;13.51;88.83;101355.59;6003204;28;20046;-65
2022/07/05 01:22:12;;;;;;;5.22;2.05;;;;;;;13.23;88.89;101348.59;6000418;28;20427;-67
2022/07/05 01:25:07;;;;;;;4.75;2.38;;;;;;;13.23;89.01;101345.94;6002553;28;20031;-64
2022/07/05 01:28:03;;;;;;;4.97;2.33;;;;;;;13.55;88.44;101354.31;6002140;28;20097;-66
2022/07/05 01:31:01;;;;;;;6.43;2.20;;;;;;;13.76;87.12;101348.69;5998128;28;20038;-66
2022/07/05 01:33:56;;;;;;;6.72;2.30;;;;;;;13.70;87.27;101345.66;6002231;28;20471;-64
2022/07/05 01:36:51;;;;;;;6.30;1.97;;;;;;;14.14;88.13;101346.56;5994537;28;20039;-66
2022/07/05 01:39:47;;;;;;;3.73;2.20;;;;;;;14.52;85.48;101345.41;6000616;28;20742;-66
2022/07/05 01:42:42;;;;;;;4.70;1.88;;;;;;;14.25;84.04;101338.34;6001096;28;20039;-65
2022/07/05 01:45:41;;;;;;;3.88;1.80;;;;;;;14.42;86.19;101333.16;6002057;28;20077;-64
2022/07/05 01:48:38;;;;;;;3.42;2.00;;;;;;;14.86;84.25;101335.63;5991272;28;20483;-63
2022/07/05 01:51:39;;;;;;;5.57;2.05;;;;;;;15.00;83.55;101320.81;6001891;28;20034;-66
2022/07/05 01:54:34;;;;;;;;;;;;;;;15.26;82.06;101332.31;6001552;28;20097;-63
2022/07/05 01:57:29;;;;;;;4.87;1.93;;;;;;;14.96;81.33;101319.47;6002407;28;19914;-66
2022/07/05 02:00:25;;;;;;;3.83;1.90;;;;;;;14.68;82.82;101320.66;6000447;28;20041;-66
2022/07/05 02:03:21;;;;;;;5.10;2.08;;;;;;;14.24;83.06;101328.66;6001243;28;20030;-65
2022/07/05 02:06:16;;;;;;;3.75;1.88;;;;;;;13.56;85.05;101324.84;5998902;28;20065;-66
2022/07/05 02:09:11;;;;;;;2.97;1.87;;;;;;;13.10;86.29;101320.47;6006837;28;20039;-66
2022/07/05 02:12:07;;;;;;;3.60;1.93;;;;;;;12.91;88.48;101336.50;6000423;28;20022;-66
2022/07/05 02:15:03;;;;;;;3.97;1.90;;;;;;;12.77;88.64;101329.00;6001569;28;20030;-66
2022/07/05 02:17:58;;;;;;;6.45;3.67;;;;;;;12.72;89.92;101333.88;6001668;28;20121;-67
2022/07/05 02:20:53;;;;;;;5.15;2.30;;;;;;;13.25;89.00;101327.97;6005945;28;20031;-67
2022/07/05 02:23:49;;;;;;;5.73;2.87;;;;;;;12.97;88.32;101327.94;6006939;28;20029;-63
2022/07/05 02:26:44;;;;;;;6.88;2.42;;;;;;;12.77;89.66;101334.31;6000894;28;20027;-64
2022/07/05 02:29:40;;;;;;;6.43;2.30;;;;;;;12.59;90.09;101346.69;6006260;28;20048;-64
2022/07/05 02:32:35;;;;;;;4.90;2.43;;;;;;;12.59;90.96;101343.16;6005363;28;20049;-64
2022/07/05 02:35:30;;;;;;;4.30;2.10;;;;;;;12.54;91.85;101339.13;6006320;28;20427;-64
2022/07/05 02:38:26;;;;;;;4.30;2.17;;;;;;;12.48;92.39;101344.16;6006684;28;20611;-63
2022/07/05 02:41:21;;;;;;;6.50;2.70;;;;;;;12.84;92.46;101319.44;6005106;28;20031;-66
2022/07/05 02:44:16;;;;;;;8.20;2.47;;;;;;;12.66;91.46;101353.13;6005967;28;20059;-64
2022/07/05 02:47:11;;;;;;;6.50;2.27;;;;;;;12.77;91.14;101347.63;6005520;28;20118;-64
2022/07/05 02:50:08;;;;;;;5.07;2.00;;;;;;;12.50;91.51;101347.56;6005296;28;20041;-65
2022/07/05 02:53:03;;;;;;;5.53;2.60;;;;;;;12.66;91.27;101357.59;6006341;28;20479;-64
2022/07/05 02:55:58;;;;;;;5.10;2.33;;;;;;;13.45;91.16;101356.19;6002888;28;20080;-66
2022/07/05 02:58:54;;;;;;;4.23;2.60;;;;;;;13.28;89.18;101346.31;5995269;28;20093;-64
2022/07/05 03:01:49;;;;;;;7.73;2.37;;;;;;;12.93;90.31;101349.69;5993866;28;20054;-65
2022/07/05 03:04:44;;;;;;;5.23;2.53;;;;;;;12.75;91.22;101354.91;6006054;28;20078;-66
2022/07/05 03:07:39;;;;;;;6.73;2.60;;;;;;;12.61;92.39;101355.34;6004864;28;20030;-64
2022/07/05 03:10:35;;;;;;;4.27;2.67;;;;;;;12.56;93.25;101349.63;6004634;28;20031;-65
2022/07/05 03:13:31;;;;;;;7.60;3.20;;;;;;;12.89;93.37;101357.09;6005161;28;20039;-64
2022/07/05 03:16:26;;;;;;;5.60;3.23;;;;;;;12.75;93.61;101354.91;6004581;28;20038;-64
2022/07/05 03:19:21;;;;;;;4.87;2.77;;;;;;;12.70;94.06;101359.81;6004466;28;20027;-63
2022/07/05 03:22:17;;;;;;;5.30;2.67;;;;;;;13.08;94.46;101354.41;6004916;28;20023;-66
2022/07/05 03:25:12;;;;;;;5.40;2.90;;;;;;;13.24;93.44;101363.56;6005130;28;20035;-63
2022/07/05 03:28:07;;;;;;;5.43;3.00;;;;;;;13.28;93.58;101359.66;6005611;28;20042;-64
2022/07/05 03:31:03;;;;;;;7.33;3.07;;;;;;;13.28;92.43;101360.50;6003560;28;20042;-64
2022/07/05 03:33:58;;;;;;;6.40;2.50;;;;;;;13.69;92.54;101370.66;6003341;28;20129;-64
2022/07/05 03:36:53;;;;;;;6.07;3.23;;;;;;;13.58;90.89;101364.69;6005301;28;20373;-65
2022/07/05 03:39:48;;;;;;;6.30;2.77;;;;;;;13.51;91.10;101367.09;5997713;28;20033;-65
2022/07/05 03:42:44;;;;;;;9.23;2.60;;;;;;;13.44;91.33;101371.34;6000055;28;20070;-66
2022/07/05 03:45:39;;;;;;;6.77;2.70;;;;;;;13.49;91.43;101370.88;5999092;28;20066;-66
2022/07/05 03:48:34;;;;;;;8.52;3.03;;;;;;;13.45;90.77;101366.88;6004123;28;20039;-65
2022/07/05 03:51:30;;;;;;;4.63;2.80;;;;;;;13.46;90.76;101368.53;6003611;28;20093;-64
2022/07/05 03:54:25;;;;;;;7.90;3.67;;;;;;;13.34;90.57;101377.72;6008391;28;20134;-66
2022/07/05 03:57:21;;;;;;;8.70;3.23;;;;;;;13.38;91.85;101363.94;6009368;28;20042;-66
2022/07/05 04:00:16;;;;;;;6.43;3.28;;;;;;;13.81;90.89;101367.75;6003995;28;20062;-65
2022/07/05 04:03:12;;;;;;;6.10;3.53;;;;;;;13.67;89.54;101379.75;6004779;28;20054;-67
2022/07/05 04:06:11;;;;;;;6.53;3.10;;;;;;;13.64;89.42;101378.22;6004544;28;20088;-65
2022/07/05 04:09:06;;;;;;;8.95;3.90;;;;;;;13.64;90.01;101372.09;6004782;28;20030;-66
2022/07/05 04:12:02;;;;;;;10.17;3.60;;;;;;;14.01;88.56;101378.13;6003902;28;20376;-66
2022/07/05 04:14:57;;;;;;;6.72;3.33;;;;;;;13.92;88.02;101383.53;6005280;28;20766;-65
2022/07/05 04:17:54;;;;;;;8.02;3.60;;;;;;;13.67;88.84;101379.75;6001995;28;20483;-64
2022/07/05 04:20:50;;;;;;;7.68;2.95;;;;;;;13.58;89.42;101388.66;6010931;28;20031;-66
2022/07/05 04:23:45;;;;;;;7.13;3.40;;;;;;;13.63;90.37;101386.38;5999548;28;20086;-64
2022/07/05 04:26:41;;;;;;;7.53;2.90;;;;;;;13.92;90.64;101386.19;6003954;28;20026;-64
2022/07/05 04:29:36;;;;;;;8.20;2.83;;;;;;;14.10;89.31;101393.22;6013938;28;20038;-66
2022/07/05 04:32:31;;;;;;;6.82;3.55;;;;;;;14.09;89.56;101396.88;6009429;28;20121;-65
2022/07/05 04:35:27;;;;;;;7.80;3.23;;;;;;;14.35;88.31;101394.31;6003934;28;20035;-66
2022/07/05 04:38:22;;;;;;;5.25;2.80;;;;;;;14.54;88.14;101396.81;6000097;28;20101;-66
2022/07/05 04:41:17;;;;;;;5.75;3.08;;;;;;;14.55;87.71;101400.31;6003228;28;20486;-67
2022/07/05 04:44:13;;;;;;;6.83;2.90;;;;;;;15.06;85.34;101395.00;5991203;28;20045;-64
2022/07/05 04:47:08;;;;;;;7.40;2.53;;;;;;;15.36;83.38;101402.50;5999818;28;20372;-64
2022/07/05 04:50:04;;;;;;;5.55;3.20;;;;;;;15.26;83.36;101400.94;6000349;28;20074;-66
2022/07/05 04:53:00;;;;;;;5.85;2.40;;;;;;;15.25;84.71;101400.09;6009777;28;20376;-65
2022/07/05 04:55:55;;;;;;;6.43;2.60;;;;;;;15.47;84.01;101399.56;6003245;28;20113;-65
2022/07/05 04:58:51;;;;;;;8.25;3.28;;;;;;;15.87;83.01;101401.53;5994796;28;20538;-64
2022/07/05 05:01:46;;;;;;;8.18;2.70;;;;;;;15.97;81.38;101390.72;5992139;28;20033;-64
2022/07/05 05:04:41;;;;;;;5.77;2.63;;;;;;;16.03;80.64;101392.75;5999762;28;20399;-65
2022/07/05 05:07:41;;;;;;;6.18;2.80;;;;;;;15.86;81.32;101399.03;6000393;28;20031;-66
2022/07/05 05:10:36;;;;;;;7.85;2.75;;;;;;;15.75;82.16;101402.03;5996121;28;20078;-66
2022/07/05 05:13:32;;;;;;;6.53;3.00;;;;;;;16.02;80.10;101393.72;5992535;28;20424;-64
2022/07/05 05:16:27;;;;;;;7.63;3.10;;;;;;;16.18;80.54;101391.06;5997899;28;20460;-64
2022/07/05 05:19:22;;;;;;;9.80;3.07;;;;;;;16.20;80.52;101402.44;6003022;28;20071;-65
2022/07/05 05:22:17;;;;;;;5.03;2.97;;;;;;;16.29;80.32;101403.28;6002615;28;20357;-65
2022/07/05 05:25:13;;;;;;;8.90;3.20;;;;;;;16.59;80.28;101403.50;5994281;28;20038;-67
2022/07/05 05:28:09;;;;;;;5.72;3.03;;;;;;;17.34;76.83;101404.03;5999548;28;20463;-65
2022/07/05 05:31:04;;;;;;;6.30;2.90;;;;;;;17.96;74.85;101401.44;6002477;28;20042;-65
2022/07/05 05:33:59;;;;;;;8.43;2.78;;;;;;;18.69;71.30;101401.75;6002771;28;20038;-66
2022/07/05 05:36:55;;;;;;;7.53;2.53;;;;;;;18.69;70.52;101402.59;6002679;28;20039;-67
2022/07/05 05:39:50;;;;;;;5.30;2.73;;;;;;;19.02;69.03;101408.47;6002326;28;20065;-66
2022/07/05 05:42:45;;;;;;;7.00;2.97;;;;;;;19.85;65.23;101408.16;5995115;28;20610;-67
2022/07/05 05:45:41;;;;;;;4.37;2.87;;;;;;;20.51;64.58;101413.25;5996895;28;20118;-65
2022/07/05 05:48:36;;;;;;;7.50;2.57;;;;;;;21.05;62.25;101416.19;6002591;28;20026;-67
2022/07/05 05:51:31;;;;;;;6.07;2.87;;;;;;;21.35;61.20;101409.56;6002295;28;20030;-65
2022/07/05 05:54:26;;;;;;;6.23;2.20;;;;;;;22.02;60.05;101419.63;6002004;28;20049;-65
2022/07/05 05:57:22;;;;;;;6.43;2.50;;;;;;;22.15;58.68;101422.34;6002869;28;20126;-67
2022/07/05 06:00:19;;;;;;;10.00;2.50;;;;;;;21.26;60.42;101429.63;6002020;28;20049;-67
2022/07/05 06:03:15;;;;;;;6.28;2.33;;;;;;;21.38;61.25;101437.16;6002352;28;20061;-66
2022/07/05 06:06:10;;;;;;;5.82;1.95;;;;;;;21.91;59.28;101420.19;6002295;28;20089;-66
2022/07/05 06:09:06;;;;;;;6.37;2.00;;;;;;;22.69;53.42;101426.84;6002450;28;20039;-65
2022/07/05 06:12:01;;;;;;;7.03;1.90;;;;;;;22.13;54.39;101429.84;6001939;28;20097;-64
2022/07/05 06:14:56;;;;;;;4.30;1.50;;;;;;;22.27;53.90;101441.50;6002415;28;20035;-65
2022/07/05 06:17:52;;;;;;;4.33;1.50;;;;;;;22.65;52.45;101431.81;6002138;28;20026;-65
2022/07/05 06:20:47;;;;;;;5.60;1.55;;;;;;;22.11;52.27;101441.88;6001858;28;20033;-67
2022/07/05 06:23:43;;;;;;;2.80;1.40;;;;;;;22.13;51.70;101439.81;5997549;28;20042;-65
2022/07/05 06:26:38;;;;;;;4.23;1.63;;;;;;;22.35;52.46;101452.13;6002213;28;20614;-67
2022/07/05 06:29:33;;;;;;;7.97;1.83;;;;;;;21.85;53.01;101448.00;6002412;28;20031;-66
2022/07/05 06:32:29;;;;;;;5.57;1.70;;;;;;;21.92;53.73;101452.44;6001837;28;20042;-67
2022/07/05 06:35:25;;;;;;;9.23;2.23;;;;;;;22.01;52.98;101458.50;6002082;28;20274;-66
2022/07/05 06:38:20;;;;;;;6.32;1.92;;;;;;;21.77;54.24;101465.19;6001834;28;20053;-65
2022/07/05 06:41:15;;;;;;;6.20;2.20;;;;;;;22.24;54.13;101461.66;6000340;28;20111;-66
2022/07/05 06:44:10;;;;;;;4.03;2.00;;;;;;;22.08;54.28;101455.78;6002129;28;20106;-65
2022/07/05 06:47:06;;;;;;;8.40;1.83;;;;;;;22.27;55.01;101455.84;6002016;28;20065;-65
2022/07/05 06:50:05;;;;;;;5.03;2.03;;;;;;;23.04;52.17;101447.22;6004402;28;20039;-67
2022/07/05 06:53:00;;;;;;;6.85;2.50;;;;;;;23.29;52.20;101444.69;6006355;28;20035;-67
2022/07/05 06:55:55;;;;;;;8.57;2.00;;;;;;;23.94;51.88;101458.06;6005750;28;20062;-67
2022/07/05 06:58:51;;;;;;;5.50;1.93;;;;;;;23.49;50.43;101454.44;6006356;28;20038;-64
2022/07/05 07:01:46;;;;;;;4.87;1.90;;;;;;;21.60;54.89;101457.66;6005363;28;20049;-64
2022/07/05 07:04:41;;;;;;;5.93;2.23;;;;;;;20.60;58.32;101454.41;6006199;28;20027;-65
2022/07/05 07:10:50;;;;;;;6.32;2.35;;;;;;;21.18;57.82;101459.47;6003454;28;20094;-66
2022/07/05 07:13:46;;;;;;;5.13;2.13;;;;;;;21.97;55.58;101449.13;6005904;28;20475;-65
2022/07/05 07:16:41;;;;;;;5.87;2.00;;;;;;;21.68;55.77;101465.56;6005790;28;20039;-65
2022/07/05 07:19:37;;;;;;;8.38;2.55;;;;;;;20.83;58.24;101449.59;6005911;28;20038;-64
2022/07/05 07:22:32;;;;;;;3.43;1.70;;;;;;;20.49;59.29;101458.41;6004886;28;20062;-65
2022/07/05 07:25:27;;;;;;;3.23;2.20;;;;;;;19.76;59.93;101466.66;6005688;28;20035;-65
2022/07/05 07:28:24;;;;;;;9.70;1.97;;;;;;;19.14;60.38;101470.69;6000091;28;20716;-65
2022/07/05 07:31:19;;;;;;;6.13;1.85;;;;;;;18.90;62.11;101469.91;6005013;28;20491;-66
2022/07/05 07:34:14;;;;;;;7.30;1.90;;;;;;;18.60;61.32;101462.78;6005574;28;20042;-66
2022/07/05 07:37:13;;;;;;;5.82;1.63;;;;;;;19.23;60.52;101453.47;6005289;28;20262;-66
2022/07/05 07:40:08;;;;;;;7.60;1.83;;;;;;;19.80;59.17;101467.97;6005037;28;20046;-67
2022/07/05 07:43:04;;;;;;;4.43;1.42;;;;;;;20.19;56.76;101456.84;6004392;28;20762;-66
2022/07/05 07:45:59;;;;;;;7.27;1.57;;;;;;;19.82;56.43;101474.00;6004765;28;20042;-64
2022/07/05 07:48:54;;;;;;;3.30;1.40;;;;;;;19.94;56.37;101464.44;6005281;28;20037;-67
2022/07/05 07:51:51;;;;;;;5.18;1.90;;;;;;;19.98;57.32;101462.16;6004201;28;20093;-64
2022/07/05 07:54:46;;;;;;;6.68;1.65;;;;;;;20.80;55.38;101455.38;6004896;28;20069;-63
2022/07/05 07:57:41;;;;;;;5.67;1.67;;;;;;;21.35;53.44;101455.44;6004750;28;20035;-67
2022/07/05 08:00:37;;;;;;;5.33;1.80;;;;;;;21.59;51.44;101451.41;6002765;28;20060;-65
2022/07/05 08:03:32;;;;;;;4.77;1.60;;;;;;;21.70;51.67;101464.34;6004535;28;20035;-67
2022/07/05 08:06:29;;;;;;;5.03;1.70;;;;;;;22.77;50.21;101461.78;6004531;28;20577;-65
2022/07/05 08:09:24;;;;;;;5.63;1.60;;;;;;;23.06;47.87;101455.94;6004744;28;20035;-64
2022/07/05 08:12:20;;;;;;;4.40;1.40;;;;;;;23.35;46.71;101458.19;6003725;28;20041;-66
2022/07/05 08:15:15;;;;;;;4.50;1.83;;;;;;;23.12;46.76;101457.81;6002665;28;20115;-67
2022/07/05 08:21:37;;;;;;;2.83;1.48;;;;;;;22.32;45.99;101463.34;6004145;28;20038;-66
2022/07/05 08:24:32;;;;;;;3.17;1.40;;;;;;;21.86;47.15;101464.03;6004224;28;20162;-66
2022/07/05 08:27:28;;;;;;;2.83;1.40;;;;;;;21.38;47.43;101469.56;6004492;28;20474;-66
2022/07/05 08:30:23;;;;;;;2.03;1.40;;;;;;;21.71;46.03;101471.41;6003657;28;20038;-64
2022/07/05 08:33:18;;;;;;;3.40;1.40;;;;;;;22.19;44.38;101458.75;5998626;28;20034;-65
2022/07/05 08:36:14;;;;;;;4.27;1.60;;;;;;;22.90;42.62;101467.19;6004192;28;20282;-66
2022/07/05 08:39:09;;;;;;;1.97;1.30;;;;;;;22.66;43.65;101465.13;6004065;28;20045;-66
2022/07/05 08:42:08;;;;;;;4.53;1.55;;;;;;;22.42;44.83;101461.09;6002670;28;20038;-65
2022/07/05 08:45:04;;;;;;;3.22;1.30;;;;;;;21.66;45.62;101457.66;6003989;28;20039;-65
2022/07/05 08:48:00;;;;;;;4.95;1.38;;;;;;;20.87;47.33;101464.38;6000214;28;20042;-66
2022/07/05 08:50:56;;;;;;;4.25;1.45;;;;;;;21.26;47.54;101462.00;5999539;28;20038;-65
2022/07/05 08:53:52;;;;;;;3.33;1.15;;;;;;;21.94;44.52;101465.72;6002311;28;20030;-66
2022/07/05 08:56:47;;;;;;;4.32;1.13;;;;;;;22.51;43.70;101457.97;6003702;28;20633;-66
2022/07/05 08:59:43;;;;;;;2.47;1.30;;;;;;;22.63;43.41;101466.34;6004093;28;20030;-67
2022/07/05 09:02:38;;;;;;;3.00;1.20;;;;;;;22.41;42.41;101464.84;6002692;28;20035;-66
2022/07/05 09:05:39;;;;;;;2.43;0.90;;;;;;;22.45;40.92;101463.38;6000449;28;20027;-65
2022/07/05 09:08:39;;;;;;;3.00;0.90;;;;;;;22.41;40.73;101473.78;6002187;28;20382;-65
2022/07/05 09:11:35;;;;;;;;;;;;;;;22.63;39.69;101465.50;6003404;28;20042;-67
2022/07/05 09:14:31;;;;;;;3.05;1.00;;;;;;;23.02;40.25;101466.34;6002624;28;19918;-65
2022/07/05 09:17:27;;;;;;;3.28;1.20;;;;;;;22.96;40.59;101467.22;6003419;28;20030;-65
2022/07/05 09:20:22;;;;;;;5.47;1.35;;;;;;;22.35;41.41;101466.47;6001808;28;20483;-65
2022/07/05 09:23:21;;;;;;;4.07;1.30;;;;;;;22.39;41.74;101478.53;5999571;28;20100;-65
2022/07/05 09:26:16;;;;;;;7.55;1.30;;;;;;;22.13;41.11;101464.97;6018183;28;20273;-67
2022/07/05 09:29:15;;;;;;;2.23;1.00;;;;;;;22.21;40.03;101462.06;6003000;28;20382;-68
2022/07/05 09:32:23;;;;;;;7.05;1.15;;;;;;;22.25;40.81;101463.34;6002488;28;20061;-65
2022/07/05 09:35:22;;;;;;;3.20;0.95;;;;;;;21.78;40.24;101460.63;6002956;28;20062;-64
2022/07/05 09:38:19;;;;;;;1.42;0.93;;;;;;;22.21;40.34;101466.63;6000801;28;20542;-66
2022/07/05 09:41:15;;;;;;;1.40;1.00;;;;;;;22.22;39.32;101463.75;6002338;28;20034;-65
2022/07/05 09:44:10;;;;;;;1.75;0.90;;;;;;;21.92;39.84;101457.00;6001389;28;20034;-65
2022/07/05 09:47:10;;;;;;;2.07;1.20;;;;;;;22.16;39.78;101459.16;6002919;28;20394;-66
2022/07/05 09:50:07;;;;;;;1.52;1.08;;;;;;;22.71;37.91;101459.91;6001941;28;20755;-65
2022/07/05 09:53:02;;;;;;;4.43;1.33;;;;;;;22.46;39.55;101459.63;6000176;28;20039;-65
2022/07/05 09:56:03;;;;;;;4.00;1.08;;;;;;;23.12;38.44;101457.81;5996937;28;20386;-67
2022/07/05 09:59:13;;;;;;;3.28;0.88;;;;;;;23.45;38.17;101453.22;6001987;28;20122;-67
2022/07/05 10:02:08;;;;;;;1.88;0.90;;;;;;;23.23;38.25;101445.53;5992921;28;20047;-64
2022/07/05 10:05:15;;;;;;;7.43;1.50;;;;;;;22.53;38.61;101458.59;6001834;28;20034;-66
2022/07/05 10:08:12;;;;;;;5.10;1.20;;;;;;;22.13;40.19;101466.81;6002169;28;20422;-66
2022/07/05 10:11:08;;;;;;;2.20;1.08;;;;;;;22.07;39.89;101449.56;5997215;28;20066;-65
2022/07/05 10:14:10;;;;;;;2.67;1.20;;;;;;;22.13;39.87;101469.53;6002735;28;20622;-65
2022/07/05 10:17:06;;;;;;;2.60;1.00;;;;;;;22.17;39.71;101450.03;6002323;28;20113;-64
2022/07/05 10:20:04;;;;;;;3.08;1.08;;;;;;;22.19;40.77;101464.16;6002172;28;20039;-64
2022/07/05 10:23:02;;;;;;;2.90;1.20;;;;;;;21.89;40.67;101468.19;6017288;28;20039;-66
2022/07/05 10:25:58;;;;;;;3.63;1.10;;;;;;;21.46;41.70;101466.69;6000272;28;20078;-65
2022/07/05 10:28:53;;;;;;;6.10;1.20;;;;;;;21.32;41.02;101466.63;6007170;28;20038;-65
2022/07/05 10:31:49;;;;;;;3.85;1.33;;;;;;;21.89;40.53;101470.91;6005931;28;20114;-65
2022/07/05 10:34:46;;;;;;;1.50;1.00;;;;;;;22.02;40.40;101457.44;6005737;28;20111;-65
2022/07/05 10:37:41;;;;;;;1.30;1.02;;;;;;;22.66;39.94;101455.13;6005525;28;20114;-64
2022/07/05 10:40:37;;;;;;;4.25;1.58;;;;;;;22.93;39.46;101461.38;6004694;28;20042;-65
2022/07/05 10:43:32;;;;;;;6.43;1.20;;;;;;;22.61;39.42;101459.47;5997723;28;20042;-66
2022/07/05 10:46:41;;;;;;;2.95;1.30;;;;;;;22.52;41.62;101466.94;6005140;28;20766;-66
2022/07/05 10:49:37;;;;;;;8.48;1.67;;;;;;;23.05;38.86;101470.50;6005244;28;20117;-65
2022/07/05 10:52:33;;;;;;;2.50;1.20;;;;;;;22.51;37.98;101467.97;6005422;28;20130;-65
2022/07/05 10:55:28;;;;;;;2.03;1.10;;;;;;;22.32;40.09;101461.47;6005832;28;20039;-66
2022/07/05 10:58:24;;;;;;;3.47;1.40;;;;;;;22.39;38.98;101462.31;5996480;28;20361;-66
2022/07/05 11:01:20;;;;;;;3.78;1.10;;;;;;;22.54;38.87;101460.28;6004803;28;20698;-66
2022/07/05 11:04:26;;;;;;;2.07;1.07;;;;;;;23.27;38.02;101455.72;6005581;28;20111;-66
2022/07/05 11:08:07;;;;;;;3.28;1.20;;;;;;;23.45;36.72;101455.94;6004188;28;20031;-65
2022/07/05 11:11:12;;;;;;;4.20;1.20;;;;;;;22.88;38.47;101461.19;6005723;28;20042;-66
2022/07/05 11:14:20;;;;;;;3.40;1.35;;;;;;;22.40;40.09;101463.16;6000943;28;20035;-65
2022/07/05 11:17:22;;;;;;;6.63;2.10;;;;;;;21.92;39.61;101457.00;5997848;28;20038;-65
2022/07/05 11:20:26;;;;;;;7.57;2.00;;;;;;;21.97;39.74;101449.13;6005206;28;20671;-65
2022/07/05 11:23:28;;;;;;;1.85;1.10;;;;;;;22.50;37.97;101456.31;6005817;28;20113;-65
2022/07/05 11:26:23;;;;;;;3.22;1.15;;;;;;;22.96;36.01;101436.63;6005747;28;20118;-66
2022/07/05 11:29:42;;;;;;;8.87;1.47;;;;;;;23.38;36.04;101444.28;6005680;28;20486;-66
2022/07/05 11:32:37;;;;;;;;;;;;;;;23.47;33.83;101440.31;6002780;28;20054;-65
2022/07/05 11:35:33;;;;;;;1.97;1.00;;;;;;;24.19;36.34;101437.28;6004606;28;19910;-66
2022/07/05 11:38:31;;;;;;;1.65;0.90;;;;;;;23.76;36.02;101435.41;6003928;28;20052;-66
2022/07/05 11:41:30;;;;;;;3.33;1.10;;;;;;;23.30;37.41;101441.75;6003702;28;20050;-64
2022/07/05 11:44:25;;;;;;;;;;;;;;;23.09;36.81;101444.72;6005621;28;20403;-65
2022/07/05 11:47:21;;;;;;;2.30;1.10;;;;;;;22.78;37.09;101436.38;6010400;28;19973;-66
2022/07/05 11:50:17;;;;;;;1.45;1.00;;;;;;;22.84;37.86;101432.84;6003278;28;20462;-66
2022/07/05 11:53:12;;;;;;;3.20;1.00;;;;;;;22.68;37.53;101426.00;6005131;28;20037;-66
2022/07/05 11:56:07;;;;;;;2.10;0.90;;;;;;;23.31;35.38;101421.78;6005180;28;20142;-66
2022/07/05 11:59:19;;;;;;;6.13;1.20;;;;;;;23.45;34.97;101428.03;6003730;28;20030;-65
2022/07/05 12:02:15;;;;;;;3.13;1.00;;;;;;;23.34;35.89;101434.91;5999672;28;20031;-65
2022/07/05 12:05:11;;;;;;;4.40;1.08;;;;;;;23.72;35.14;101428.75;5997644;28;20030;-66
2022/07/05 12:08:07;;;;;;;2.17;1.00;;;;;;;24.18;33.49;101419.38;6004715;28;20030;-66
2022/07/05 12:14:23;;;;;;;4.47;1.33;;;;;;;24.28;32.85;101418.91;6004685;28;20113;-65
2022/07/05 12:17:20;;;;;;;5.68;1.02;;;;;;;24.81;32.12;101412.03;6004745;28;20041;-65
2022/07/05 12:20:22;;;;;;;1.15;1.00;;;;;;;25.60;32.79;101411.22;5990892;28;20530;-66
2022/07/05 12:23:26;;;;;;;5.22;0.98;;;;;;;26.35;30.95;101417.16;6004323;28;20041;-67
2022/07/05 12:26:22;;;;;;;1.83;0.82;;;;;;;25.23;30.65;101415.81;6004376;28;20038;-66
2022/07/05 12:29:18;;;;;;;3.10;1.00;;;;;;;24.67;32.89;101407.75;6004529;28;20438;-66
2022/07/05 12:32:14;;;;;;;3.60;0.98;;;;;;;24.01;33.57;101417.34;6018221;28;20045;-68
2022/07/05 12:35:32;;;;;;;4.03;0.90;;;;;;;23.90;33.74;101409.91;5995991;28;20059;-66
2022/07/05 12:38:29;;;;;;;2.00;0.70;;;;;;;23.49;34.04;101407.59;5991306;28;20031;-67
2022/07/05 12:41:24;;;;;;;3.22;1.00;;;;;;;23.19;34.93;101423.47;6002834;28;20105;-65
2022/07/05 12:44:20;;;;;;;1.13;0.90;;;;;;;23.32;35.06;101418.00;6004037;28;20054;-66
2022/07/05 12:47:15;;;;;;;1.20;0.80;;;;;;;23.63;34.36;101423.59;6003621;28;20093;-65
2022/07/05 12:50:10;;;;;;;2.97;0.67;;;;;;;24.26;33.69;101421.00;6002056;28;20042;-68
2022/07/05 12:59:38;;;;;;;3.78;0.80;;;;;;;24.59;32.28;101409.91;6003559;28;20109;-66
2022/07/05 13:02:38;;;;;;;0.82;0.70;;;;;;;24.72;32.60;101412.53;6002983;28;20027;-65
2022/07/05 13:05:35;;;;;;;1.75;0.63;;;;;;;24.99;31.41;101405.84;6003249;28;20030;-66
2022/07/05 13:08:31;;;;;;;3.88;0.90;;;;;;;25.14;31.17;101391.91;5993794;28;20115;-65
2022/07/05 13:11:32;;;;;;;1.43;0.80;;;;;;;25.15;30.96;101398.97;6002766;28;20050;-66
2022/07/05 13:14:27;;;;;;;3.75;0.82;;;;;;;24.57;32.40;101412.03;6003049;28;20274;-66
2022/07/05 13:17:24;;;;;;;3.47;1.00;;;;;;;23.72;34.28;101412.50;6003081;28;20046;-66
2022/07/05 13:20:22;;;;;;;3.15;0.75;;;;;;;23.11;35.71;101420.97;6002420;28;20047;-67
2022/07/05 13:23:17;;;;;;;1.27;0.88;;;;;;;23.02;35.31;101395.16;5998385;28;20110;-66
2022/07/05 13:26:12;;;;;;;3.80;0.90;;;;;;;23.82;34.40;101402.88;5996611;28;20034;-66
2022/07/05 13:29:08;;;;;;;2.17;0.90;;;;;;;23.54;34.92;101405.91;6002891;28;20471;-65
2022/07/05 13:32:03;;;;;;;1.10;0.70;;;;;;;23.68;34.96;101406.66;6002490;28;20084;-66
2022/07/05 13:35:00;;;;;;;1.45;0.90;;;;;;;23.45;34.70;101404.50;6002798;28;20043;-65
2022/07/05 13:37:55;;;;;;;1.15;0.70;;;;;;;23.47;34.52;101398.84;6003110;28;20031;-65
2022/07/05 13:40:50;;;;;;;2.13;0.80;;;;;;;24.38;33.83;101402.16;5989683;28;20039;-65
2022/07/05 13:43:46;;;;;;;3.00;0.90;;;;;;;24.51;32.98;101402.06;6002631;28;20035;-66
2022/07/05 13:46:42;;;;;;;1.90;0.80;;;;;;;24.47;32.39;101393.53;6002791;28;20026;-64
2022/07/05 13:49:39;;;;;;;2.03;1.00;;;;;;;25.13;32.51;101403.81;6002423;28;20442;-66
2022/07/05 13:52:35;;;;;;;1.10;0.70;;;;;;;25.35;31.29;101405.88;6002049;28;20042;-66
2022/07/05 13:55:30;;;;;;;1.83;0.93;;;;;;;25.31;30.57;101392.97;6001494;28;20046;-65
2022/07/05 13:58:25;;;;;;;1.67;0.80;;;;;;;25.42;30.87;101392.19;6001729;28;20402;-65
2022/07/05 14:01:26;;;;;;;1.30;0.80;;;;;;;25.42;31.24;101397.63;6001974;28;20345;-66